sensor_id;sensor_type;location;lat;lon;timestamp;P1;durP1;ratioP1;P2;durP2;ratioP2
325;SDS011;150;52.352;14.058;2023-05-16T00:05:53;6.00;;;5.07;;
325;SDS011;150;52.352;14.058;2023-05-16T00:08:38;5.75;;;5.45;;
325;SDS011;150;52.352;14.058;2023-05-16T00:14:39;4.97;;;4.67;;
325;SDS011;150;52.352;14.058;2023-05-16T00:17:33;6.70;;;5.95;;
325;SDS011;150;52.352;14.058;2023-05-16T00:20:01;6.20;;;5.90;;
325;SDS011;150;52.352;14.058;2023-05-16T00:22:35;7.00;;;5.93;;
325;SDS011;150;52.352;14.058;2023-05-16T00:25:01;5.85;;;5.57;;
325;SDS011;150;52.352;14.058;2023-05-16T00:27:28;5.43;;;5.13;;
325;SDS011;150;52.352;14.058;2023-05-16T00:29:55;8.15;;;6.15;;
325;SDS011;150;52.352;14.058;2023-05-16T00:32:22;7.25;;;6.43;;
325;SDS011;150;52.352;14.058;2023-05-16T00:34:48;6.22;;;5.60;;
325;SDS011;150;52.352;14.058;2023-05-16T00:37:16;7.82;;;6.45;;
325;SDS011;150;52.352;14.058;2023-05-16T00:39:43;7.03;;;6.00;;
325;SDS011;150;52.352;14.058;2023-05-16T00:42:10;5.40;;;4.90;;
325;SDS011;150;52.352;14.058;2023-05-16T00:44:36;8.35;;;5.70;;
325;SDS011;150;52.352;14.058;2023-05-16T00:47:03;6.10;;;5.70;;
325;SDS011;150;52.352;14.058;2023-05-16T00:49:30;6.50;;;6.10;;
325;SDS011;150;52.352;14.058;2023-05-16T00:51:57;7.10;;;6.00;;
325;SDS011;150;52.352;14.058;2023-05-16T00:54:25;5.32;;;5.07;;
325;SDS011;150;52.352;14.058;2023-05-16T00:56:53;5.55;;;5.22;;
325;SDS011;150;52.352;14.058;2023-05-16T00:59:20;6.50;;;5.70;;
325;SDS011;150;52.352;14.058;2023-05-16T01:01:46;6.70;;;6.35;;
325;SDS011;150;52.352;14.058;2023-05-16T01:04:14;7.82;;;5.40;;
325;SDS011;150;52.352;14.058;2023-05-16T01:06:41;6.40;;;5.95;;
325;SDS011;150;52.352;14.058;2023-05-16T01:09:08;6.00;;;5.40;;
325;SDS011;150;52.352;14.058;2023-05-16T01:11:37;7.45;;;5.97;;
325;SDS011;150;52.352;14.058;2023-05-16T01:14:12;5.93;;;5.60;;
325;SDS011;150;52.352;14.058;2023-05-16T01:16:45;7.35;;;5.90;;
325;SDS011;150;52.352;14.058;2023-05-16T01:19:22;7.70;;;6.15;;
325;SDS011;150;52.352;14.058;2023-05-16T01:22:05;6.40;;;5.97;;
325;SDS011;150;52.352;14.058;2023-05-16T01:24:42;6.15;;;5.70;;
325;SDS011;150;52.352;14.058;2023-05-16T01:27:17;5.88;;;5.57;;
325;SDS011;150;52.352;14.058;2023-05-16T01:29:45;8.95;;;6.40;;
325;SDS011;150;52.352;14.058;2023-05-16T01:32:11;6.13;;;5.65;;
325;SDS011;150;52.352;14.058;2023-05-16T01:34:40;7.93;;;6.20;;
325;SDS011;150;52.352;14.058;2023-05-16T01:37:08;5.95;;;5.65;;
325;SDS011;150;52.352;14.058;2023-05-16T01:39:41;6.50;;;6.10;;
325;SDS011;150;52.352;14.058;2023-05-16T01:42:12;6.45;;;5.78;;
325;SDS011;150;52.352;14.058;2023-05-16T01:44:42;6.00;;;5.40;;
325;SDS011;150;52.352;14.058;2023-05-16T01:47:13;7.15;;;6.38;;
325;SDS011;150;52.352;14.058;2023-05-16T01:49:42;7.10;;;5.85;;
325;SDS011;150;52.352;14.058;2023-05-16T01:52:15;6.55;;;6.15;;
325;SDS011;150;52.352;14.058;2023-05-16T01:54:46;6.25;;;5.63;;
325;SDS011;150;52.352;14.058;2023-05-16T01:57:14;6.15;;;5.85;;
325;SDS011;150;52.352;14.058;2023-05-16T01:59:43;7.15;;;6.80;;
325;SDS011;150;52.352;14.058;2023-05-16T02:02:10;7.45;;;6.93;;
325;SDS011;150;52.352;14.058;2023-05-16T02:04:37;7.22;;;6.45;;
325;SDS011;150;52.352;14.058;2023-05-16T02:07:04;7.32;;;6.95;;
325;SDS011;150;52.352;14.058;2023-05-16T02:09:30;6.57;;;6.17;;
325;SDS011;150;52.352;14.058;2023-05-16T02:11:58;7.32;;;6.30;;
325;SDS011;150;52.352;14.058;2023-05-16T02:14:26;7.82;;;6.85;;
325;SDS011;150;52.352;14.058;2023-05-16T02:16:54;7.40;;;6.85;;
325;SDS011;150;52.352;14.058;2023-05-16T02:19:21;7.18;;;6.82;;
325;SDS011;150;52.352;14.058;2023-05-16T02:21:48;7.22;;;6.93;;
325;SDS011;150;52.352;14.058;2023-05-16T02:24:15;8.95;;;6.60;;
325;SDS011;150;52.352;14.058;2023-05-16T02:26:41;10.02;;;8.50;;
325;SDS011;150;52.352;14.058;2023-05-16T02:29:08;7.38;;;6.97;;
325;SDS011;150;52.352;14.058;2023-05-16T02:31:35;8.32;;;7.38;;
325;SDS011;150;52.352;14.058;2023-05-16T02:34:03;7.57;;;6.93;;
325;SDS011;150;52.352;14.058;2023-05-16T02:36:29;7.30;;;6.90;;
325;SDS011;150;52.352;14.058;2023-05-16T02:38:58;8.73;;;7.25;;
325;SDS011;150;52.352;14.058;2023-05-16T02:41:25;10.30;;;8.37;;
325;SDS011;150;52.352;14.058;2023-05-16T02:43:51;11.50;;;8.10;;
325;SDS011;150;52.352;14.058;2023-05-16T02:46:22;8.00;;;7.60;;
325;SDS011;150;52.352;14.058;2023-05-16T02:48:50;9.82;;;8.90;;
325;SDS011;150;52.352;14.058;2023-05-16T02:51:19;8.55;;;8.05;;
325;SDS011;150;52.352;14.058;2023-05-16T02:53:46;9.77;;;7.75;;
325;SDS011;150;52.352;14.058;2023-05-16T02:56:12;8.82;;;7.57;;
325;SDS011;150;52.352;14.058;2023-05-16T02:58:39;10.38;;;8.23;;
325;SDS011;150;52.352;14.058;2023-05-16T03:01:05;9.52;;;8.15;;
325;SDS011;150;52.352;14.058;2023-05-16T03:03:32;8.13;;;7.70;;
325;SDS011;150;52.352;14.058;2023-05-16T03:06:00;9.18;;;8.68;;
325;SDS011;150;52.352;14.058;2023-05-16T03:08:27;9.00;;;8.50;;
325;SDS011;150;52.352;14.058;2023-05-16T03:10:54;8.68;;;8.18;;
325;SDS011;150;52.352;14.058;2023-05-16T03:13:21;9.20;;;8.70;;
325;SDS011;150;52.352;14.058;2023-05-16T03:15:48;8.82;;;8.18;;
325;SDS011;150;52.352;14.058;2023-05-16T03:18:14;9.10;;;8.60;;
325;SDS011;150;52.352;14.058;2023-05-16T03:20:41;9.13;;;8.20;;
325;SDS011;150;52.352;14.058;2023-05-16T03:23:08;10.05;;;9.30;;
325;SDS011;150;52.352;14.058;2023-05-16T03:25:36;11.00;;;9.10;;
325;SDS011;150;52.352;14.058;2023-05-16T03:28:03;14.75;;;10.93;;
325;SDS011;150;52.352;14.058;2023-05-16T03:30:31;14.20;;;12.10;;
325;SDS011;150;52.352;14.058;2023-05-16T03:32:58;13.07;;;12.13;;
325;SDS011;150;52.352;14.058;2023-05-16T03:35:25;12.07;;;10.70;;
325;SDS011;150;52.352;14.058;2023-05-16T03:37:52;15.45;;;10.95;;
325;SDS011;150;52.352;14.058;2023-05-16T03:40:19;16.90;;;12.37;;
325;SDS011;150;52.352;14.058;2023-05-16T03:42:47;13.40;;;12.57;;
325;SDS011;150;52.352;14.058;2023-05-16T03:45:14;14.30;;;11.77;;
325;SDS011;150;52.352;14.058;2023-05-16T03:47:41;17.40;;;12.23;;
325;SDS011;150;52.352;14.058;2023-05-16T03:50:08;12.95;;;11.77;;
325;SDS011;150;52.352;14.058;2023-05-16T03:52:35;13.88;;;12.07;;
325;SDS011;150;52.352;14.058;2023-05-16T03:55:02;15.55;;;12.77;;
325;SDS011;150;52.352;14.058;2023-05-16T03:57:30;15.63;;;13.07;;
325;SDS011;150;52.352;14.058;2023-05-16T03:59:59;14.90;;;12.83;;
325;SDS011;150;52.352;14.058;2023-05-16T04:02:25;16.25;;;12.52;;
325;SDS011;150;52.352;14.058;2023-05-16T04:04:52;20.42;;;13.02;;
325;SDS011;150;52.352;14.058;2023-05-16T04:07:19;14.77;;;11.80;;
325;SDS011;150;52.352;14.058;2023-05-16T04:09:45;17.90;;;12.48;;
325;SDS011;150;52.352;14.058;2023-05-16T04:12:12;17.50;;;14.18;;
325;SDS011;150;52.352;14.058;2023-05-16T04:14:39;16.80;;;13.07;;
325;SDS011;150;52.352;14.058;2023-05-16T04:17:07;18.45;;;13.10;;
325;SDS011;150;52.352;14.058;2023-05-16T04:19:34;14.98;;;12.15;;
325;SDS011;150;52.352;14.058;2023-05-16T04:22:01;14.15;;;12.20;;
325;SDS011;150;52.352;14.058;2023-05-16T04:24:27;15.20;;;12.15;;
325;SDS011;150;52.352;14.058;2023-05-16T04:26:54;14.80;;;13.40;;
325;SDS011;150;52.352;14.058;2023-05-16T04:29:21;14.82;;;12.70;;
325;SDS011;150;52.352;14.058;2023-05-16T04:31:48;14.10;;;11.60;;
325;SDS011;150;52.352;14.058;2023-05-16T04:34:15;14.38;;;10.60;;
325;SDS011;150;52.352;14.058;2023-05-16T04:36:42;12.35;;;10.77;;
325;SDS011;150;52.352;14.058;2023-05-16T04:39:09;16.42;;;12.00;;
325;SDS011;150;52.352;14.058;2023-05-16T04:41:35;15.90;;;12.10;;
325;SDS011;150;52.352;14.058;2023-05-16T04:44:02;15.13;;;12.50;;
325;SDS011;150;52.352;14.058;2023-05-16T04:46:29;15.80;;;11.75;;
325;SDS011;150;52.352;14.058;2023-05-16T04:48:56;14.23;;;11.18;;
325;SDS011;150;52.352;14.058;2023-05-16T04:51:24;14.48;;;11.73;;
325;SDS011;150;52.352;14.058;2023-05-16T04:53:50;14.35;;;11.40;;
325;SDS011;150;52.352;14.058;2023-05-16T04:56:17;14.07;;;12.15;;
325;SDS011;150;52.352;14.058;2023-05-16T04:58:44;16.40;;;11.75;;
325;SDS011;150;52.352;14.058;2023-05-16T05:01:11;16.40;;;11.23;;
325;SDS011;150;52.352;14.058;2023-05-16T05:03:37;14.65;;;12.40;;
325;SDS011;150;52.352;14.058;2023-05-16T05:06:04;13.43;;;11.23;;
325;SDS011;150;52.352;14.058;2023-05-16T05:08:32;14.98;;;11.40;;
325;SDS011;150;52.352;14.058;2023-05-16T05:10:59;15.80;;;11.80;;
325;SDS011;150;52.352;14.058;2023-05-16T05:13:25;13.70;;;11.40;;
325;SDS011;150;52.352;14.058;2023-05-16T05:15:52;12.55;;;10.93;;
325;SDS011;150;52.352;14.058;2023-05-16T05:18:18;15.43;;;12.00;;
325;SDS011;150;52.352;14.058;2023-05-16T05:20:45;15.52;;;11.88;;
325;SDS011;150;52.352;14.058;2023-05-16T05:23:12;14.00;;;11.73;;
325;SDS011;150;52.352;14.058;2023-05-16T05:25:40;15.00;;;11.43;;
325;SDS011;150;52.352;14.058;2023-05-16T05:28:06;17.10;;;13.88;;
325;SDS011;150;52.352;14.058;2023-05-16T05:30:33;15.38;;;11.77;;
325;SDS011;150;52.352;14.058;2023-05-16T05:33:00;13.50;;;11.07;;
325;SDS011;150;52.352;14.058;2023-05-16T05:35:26;12.70;;;10.82;;
325;SDS011;150;52.352;14.058;2023-05-16T05:37:53;10.10;;;9.60;;
325;SDS011;150;52.352;14.058;2023-05-16T05:40:20;11.43;;;9.95;;
325;SDS011;150;52.352;14.058;2023-05-16T05:42:48;12.10;;;10.63;;
325;SDS011;150;52.352;14.058;2023-05-16T05:45:15;12.50;;;11.25;;
325;SDS011;150;52.352;14.058;2023-05-16T05:47:41;17.08;;;10.60;;
325;SDS011;150;52.352;14.058;2023-05-16T05:50:08;12.90;;;11.05;;
325;SDS011;150;52.352;14.058;2023-05-16T05:52:36;13.18;;;10.50;;
325;SDS011;150;52.352;14.058;2023-05-16T05:55:04;13.80;;;11.68;;
325;SDS011;150;52.352;14.058;2023-05-16T05:57:31;13.50;;;11.65;;
325;SDS011;150;52.352;14.058;2023-05-16T05:59:59;12.32;;;10.70;;
325;SDS011;150;52.352;14.058;2023-05-16T06:02:25;13.40;;;10.68;;
325;SDS011;150;52.352;14.058;2023-05-16T06:04:53;15.23;;;11.30;;
325;SDS011;150;52.352;14.058;2023-05-16T06:07:19;14.52;;;11.80;;
325;SDS011;150;52.352;14.058;2023-05-16T06:09:46;14.48;;;11.07;;
325;SDS011;150;52.352;14.058;2023-05-16T06:12:13;15.73;;;11.80;;
325;SDS011;150;52.352;14.058;2023-05-16T06:14:39;13.90;;;11.45;;
325;SDS011;150;52.352;14.058;2023-05-16T06:17:07;16.23;;;12.15;;
325;SDS011;150;52.352;14.058;2023-05-16T06:19:34;13.93;;;10.90;;
325;SDS011;150;52.352;14.058;2023-05-16T06:22:00;13.63;;;10.73;;
325;SDS011;150;52.352;14.058;2023-05-16T06:24:27;15.43;;;10.70;;
325;SDS011;150;52.352;14.058;2023-05-16T06:26:54;16.70;;;12.40;;
325;SDS011;150;52.352;14.058;2023-05-16T06:29:22;13.65;;;10.23;;
325;SDS011;150;52.352;14.058;2023-05-16T06:31:48;14.43;;;11.93;;
325;SDS011;150;52.352;14.058;2023-05-16T06:34:16;15.80;;;9.90;;
325;SDS011;150;52.352;14.058;2023-05-16T06:36:43;15.98;;;11.68;;
325;SDS011;150;52.352;14.058;2023-05-16T06:39:09;17.02;;;11.90;;
325;SDS011;150;52.352;14.058;2023-05-16T06:41:36;15.77;;;11.88;;
325;SDS011;150;52.352;14.058;2023-05-16T06:44:03;17.77;;;12.98;;
325;SDS011;150;52.352;14.058;2023-05-16T06:46:30;17.40;;;11.55;;
325;SDS011;150;52.352;14.058;2023-05-16T06:48:57;14.23;;;11.68;;
325;SDS011;150;52.352;14.058;2023-05-16T06:51:25;17.02;;;11.80;;
325;SDS011;150;52.352;14.058;2023-05-16T06:53:52;13.35;;;11.05;;
325;SDS011;150;52.352;14.058;2023-05-16T06:56:18;15.73;;;11.77;;
325;SDS011;150;52.352;14.058;2023-05-16T06:58:45;14.60;;;10.82;;
325;SDS011;150;52.352;14.058;2023-05-16T07:01:13;16.42;;;11.32;;
325;SDS011;150;52.352;14.058;2023-05-16T07:03:40;17.95;;;11.70;;
325;SDS011;150;52.352;14.058;2023-05-16T07:06:06;15.40;;;11.73;;
325;SDS011;150;52.352;14.058;2023-05-16T07:08:34;14.67;;;11.77;;
325;SDS011;150;52.352;14.058;2023-05-16T07:11:01;12.80;;;10.57;;
325;SDS011;150;52.352;14.058;2023-05-16T07:13:28;14.50;;;10.38;;
325;SDS011;150;52.352;14.058;2023-05-16T07:15:55;13.88;;;11.38;;
325;SDS011;150;52.352;14.058;2023-05-16T07:18:21;18.50;;;12.55;;
325;SDS011;150;52.352;14.058;2023-05-16T07:20:48;16.40;;;11.70;;
325;SDS011;150;52.352;14.058;2023-05-16T07:23:14;16.90;;;11.75;;
325;SDS011;150;52.352;14.058;2023-05-16T07:25:42;17.17;;;12.57;;
325;SDS011;150;52.352;14.058;2023-05-16T07:28:09;16.67;;;10.95;;
325;SDS011;150;52.352;14.058;2023-05-16T07:30:36;16.48;;;11.68;;
325;SDS011;150;52.352;14.058;2023-05-16T07:33:02;13.98;;;11.32;;
325;SDS011;150;52.352;14.058;2023-05-16T07:35:29;14.55;;;11.70;;
325;SDS011;150;52.352;14.058;2023-05-16T07:37:56;17.05;;;12.00;;
325;SDS011;150;52.352;14.058;2023-05-16T07:40:23;13.10;;;10.52;;
325;SDS011;150;52.352;14.058;2023-05-16T07:42:54;14.73;;;11.60;;
325;SDS011;150;52.352;14.058;2023-05-16T07:45:21;15.35;;;11.50;;
325;SDS011;150;52.352;14.058;2023-05-16T07:47:47;14.73;;;11.38;;
325;SDS011;150;52.352;14.058;2023-05-16T07:50:14;13.10;;;11.47;;
325;SDS011;150;52.352;14.058;2023-05-16T07:52:40;15.35;;;12.45;;
325;SDS011;150;52.352;14.058;2023-05-16T07:55:07;14.10;;;10.52;;
325;SDS011;150;52.352;14.058;2023-05-16T07:57:34;12.77;;;10.82;;
325;SDS011;150;52.352;14.058;2023-05-16T08:00:02;12.68;;;9.50;;
325;SDS011;150;52.352;14.058;2023-05-16T08:02:29;11.80;;;9.38;;
325;SDS011;150;52.352;14.058;2023-05-16T08:04:56;13.00;;;9.65;;
325;SDS011;150;52.352;14.058;2023-05-16T08:07:23;11.45;;;9.05;;
325;SDS011;150;52.352;14.058;2023-05-16T08:09:49;11.00;;;8.57;;
325;SDS011;150;52.352;14.058;2023-05-16T08:12:16;10.20;;;8.57;;
325;SDS011;150;52.352;14.058;2023-05-16T08:14:43;12.80;;;9.40;;
325;SDS011;150;52.352;14.058;2023-05-16T08:17:11;12.85;;;9.00;;
325;SDS011;150;52.352;14.058;2023-05-16T08:19:38;10.00;;;9.52;;
325;SDS011;150;52.352;14.058;2023-05-16T08:22:05;12.13;;;9.75;;
325;SDS011;150;52.352;14.058;2023-05-16T08:24:33;11.35;;;9.45;;
325;SDS011;150;52.352;14.058;2023-05-16T08:27:00;11.13;;;9.90;;
325;SDS011;150;52.352;14.058;2023-05-16T08:29:27;10.07;;;9.65;;
325;SDS011;150;52.352;14.058;2023-05-16T08:31:54;12.13;;;9.77;;
325;SDS011;150;52.352;14.058;2023-05-16T08:34:22;11.90;;;9.70;;
325;SDS011;150;52.352;14.058;2023-05-16T08:36:48;12.73;;;8.98;;
325;SDS011;150;52.352;14.058;2023-05-16T08:39:15;13.52;;;9.90;;
325;SDS011;150;52.352;14.058;2023-05-16T08:41:41;11.88;;;9.25;;
325;SDS011;150;52.352;14.058;2023-05-16T08:44:08;10.52;;;9.38;;
325;SDS011;150;52.352;14.058;2023-05-16T08:46:37;9.38;;;8.88;;
325;SDS011;150;52.352;14.058;2023-05-16T08:49:06;10.43;;;9.05;;
325;SDS011;150;52.352;14.058;2023-05-16T08:51:36;11.05;;;9.00;;
325;SDS011;150;52.352;14.058;2023-05-16T08:54:05;9.70;;;8.48;;
325;SDS011;150;52.352;14.058;2023-05-16T08:56:35;10.70;;;8.00;;
325;SDS011;150;52.352;14.058;2023-05-16T08:59:03;8.40;;;7.37;;
325;SDS011;150;52.352;14.058;2023-05-16T09:01:30;8.43;;;7.83;;
325;SDS011;150;52.352;14.058;2023-05-16T09:03:57;8.45;;;7.00;;
325;SDS011;150;52.352;14.058;2023-05-16T09:06:25;7.45;;;6.93;;
325;SDS011;150;52.352;14.058;2023-05-16T09:08:53;9.10;;;6.60;;
325;SDS011;150;52.352;14.058;2023-05-16T09:11:20;8.75;;;6.97;;
325;SDS011;150;52.352;14.058;2023-05-16T09:13:47;6.10;;;5.80;;
325;SDS011;150;52.352;14.058;2023-05-16T09:16:14;7.80;;;7.10;;
325;SDS011;150;52.352;14.058;2023-05-16T09:18:42;7.88;;;6.40;;
325;SDS011;150;52.352;14.058;2023-05-16T09:21:10;6.45;;;6.05;;
325;SDS011;150;52.352;14.058;2023-05-16T09:23:37;7.03;;;6.38;;
325;SDS011;150;52.352;14.058;2023-05-16T09:26:06;5.70;;;5.30;;
325;SDS011;150;52.352;14.058;2023-05-16T09:28:33;7.38;;;5.78;;
325;SDS011;150;52.352;14.058;2023-05-16T09:31:02;7.10;;;5.77;;
325;SDS011;150;52.352;14.058;2023-05-16T09:33:28;6.57;;;5.95;;
325;SDS011;150;52.352;14.058;2023-05-16T09:35:56;6.75;;;4.50;;
325;SDS011;150;52.352;14.058;2023-05-16T09:38:24;7.47;;;4.22;;
325;SDS011;150;52.352;14.058;2023-05-16T09:40:51;6.85;;;4.57;;
325;SDS011;150;52.352;14.058;2023-05-16T09:43:20;8.98;;;5.00;;
325;SDS011;150;52.352;14.058;2023-05-16T09:45:48;5.75;;;4.78;;
325;SDS011;150;52.352;14.058;2023-05-16T09:48:15;5.55;;;3.70;;
325;SDS011;150;52.352;14.058;2023-05-16T09:50:45;4.95;;;4.07;;
325;SDS011;150;52.352;14.058;2023-05-16T09:53:13;6.43;;;4.10;;
325;SDS011;150;52.352;14.058;2023-05-16T09:55:40;4.60;;;4.18;;
325;SDS011;150;52.352;14.058;2023-05-16T09:58:07;6.45;;;5.15;;
325;SDS011;150;52.352;14.058;2023-05-16T10:00:35;8.80;;;4.57;;
325;SDS011;150;52.352;14.058;2023-05-16T10:03:02;4.13;;;3.90;;
325;SDS011;150;52.352;14.058;2023-05-16T10:05:29;4.38;;;4.07;;
325;SDS011;150;52.352;14.058;2023-05-16T10:07:56;5.22;;;4.03;;
325;SDS011;150;52.352;14.058;2023-05-16T10:10:24;5.07;;;3.72;;
325;SDS011;150;52.352;14.058;2023-05-16T10:12:52;5.40;;;3.97;;
325;SDS011;150;52.352;14.058;2023-05-16T10:15:22;6.18;;;3.50;;
325;SDS011;150;52.352;14.058;2023-05-16T10:17:51;5.30;;;3.70;;
325;SDS011;150;52.352;14.058;2023-05-16T10:20:20;5.50;;;3.78;;
325;SDS011;150;52.352;14.058;2023-05-16T10:22:49;3.25;;;3.00;;
325;SDS011;150;52.352;14.058;2023-05-16T10:25:22;3.97;;;3.13;;
325;SDS011;150;52.352;14.058;2023-05-16T10:27:53;6.43;;;5.57;;
325;SDS011;150;52.352;14.058;2023-05-16T10:30:20;4.10;;;3.60;;
325;SDS011;150;52.352;14.058;2023-05-16T10:32:47;3.10;;;2.80;;
325;SDS011;150;52.352;14.058;2023-05-16T10:35:16;4.28;;;2.95;;
325;SDS011;150;52.352;14.058;2023-05-16T10:37:44;3.65;;;2.88;;
325;SDS011;150;52.352;14.058;2023-05-16T10:40:12;4.60;;;2.70;;
325;SDS011;150;52.352;14.058;2023-05-16T10:42:42;3.20;;;2.70;;
325;SDS011;150;52.352;14.058;2023-05-16T10:45:19;4.38;;;2.63;;
325;SDS011;150;52.352;14.058;2023-05-16T10:47:52;3.78;;;2.63;;
325;SDS011;150;52.352;14.058;2023-05-16T10:50:31;2.58;;;2.08;;
325;SDS011;150;52.352;14.058;2023-05-16T10:53:15;2.75;;;2.15;;
325;SDS011;150;52.352;14.058;2023-05-16T10:58:40;4.57;;;2.00;;
325;SDS011;150;52.352;14.058;2023-05-16T11:01:15;2.85;;;2.20;;
325;SDS011;150;52.352;14.058;2023-05-16T11:06:31;4.70;;;2.08;;
325;SDS011;150;52.352;14.058;2023-05-16T11:09:16;2.53;;;2.00;;
325;SDS011;150;52.352;14.058;2023-05-16T11:11:53;4.75;;;2.42;;
325;SDS011;150;52.352;14.058;2023-05-16T11:14:21;3.85;;;1.75;;
325;SDS011;150;52.352;14.058;2023-05-16T11:16:49;3.75;;;1.90;;
325;SDS011;150;52.352;14.058;2023-05-16T11:22:10;5.50;;;1.55;;
325;SDS011;150;52.352;14.058;2023-05-16T11:24:47;3.40;;;1.50;;
325;SDS011;150;52.352;14.058;2023-05-16T11:27:19;3.88;;;1.80;;
325;SDS011;150;52.352;14.058;2023-05-16T11:29:47;2.17;;;1.38;;
325;SDS011;150;52.352;14.058;2023-05-16T11:32:17;5.25;;;1.98;;
325;SDS011;150;52.352;14.058;2023-05-16T11:34:45;4.10;;;1.40;;
325;SDS011;150;52.352;14.058;2023-05-16T11:37:13;3.38;;;1.30;;
325;SDS011;150;52.352;14.058;2023-05-16T11:39:41;3.70;;;1.50;;
325;SDS011;150;52.352;14.058;2023-05-16T11:42:07;3.05;;;1.50;;
325;SDS011;150;52.352;14.058;2023-05-16T11:44:34;3.72;;;1.50;;
325;SDS011;150;52.352;14.058;2023-05-16T11:47:01;2.10;;;1.40;;
325;SDS011;150;52.352;14.058;2023-05-16T11:49:28;3.50;;;1.83;;
325;SDS011;150;52.352;14.058;2023-05-16T11:51:55;4.50;;;1.90;;
325;SDS011;150;52.352;14.058;2023-05-16T11:54:24;4.20;;;1.83;;
325;SDS011;150;52.352;14.058;2023-05-16T11:56:51;3.38;;;2.08;;
325;SDS011;150;52.352;14.058;2023-05-16T11:59:18;10.23;;;4.53;;
325;SDS011;150;52.352;14.058;2023-05-16T12:01:45;2.90;;;2.30;;
325;SDS011;150;52.352;14.058;2023-05-16T12:04:14;3.22;;;1.90;;
325;SDS011;150;52.352;14.058;2023-05-16T12:06:42;3.90;;;1.70;;
325;SDS011;150;52.352;14.058;2023-05-16T12:09:10;3.20;;;2.27;;
325;SDS011;150;52.352;14.058;2023-05-16T12:11:40;2.80;;;1.70;;
325;SDS011;150;52.352;14.058;2023-05-16T12:14:08;6.60;;;1.70;;
325;SDS011;150;52.352;14.058;2023-05-16T12:16:37;2.97;;;1.98;;
325;SDS011;150;52.352;14.058;2023-05-16T12:19:06;7.90;;;4.13;;
325;SDS011;150;52.352;14.058;2023-05-16T12:21:39;3.25;;;2.53;;
325;SDS011;150;52.352;14.058;2023-05-16T12:24:11;4.60;;;2.70;;
325;SDS011;150;52.352;14.058;2023-05-16T12:26:46;3.15;;;2.08;;
325;SDS011;150;52.352;14.058;2023-05-16T12:29:12;3.97;;;2.00;;
325;SDS011;150;52.352;14.058;2023-05-16T12:31:39;3.65;;;2.40;;
325;SDS011;150;52.352;14.058;2023-05-16T12:34:13;3.28;;;2.42;;
325;SDS011;150;52.352;14.058;2023-05-16T12:36:43;2.30;;;2.15;;
325;SDS011;150;52.352;14.058;2023-05-16T12:39:10;4.10;;;1.83;;
325;SDS011;150;52.352;14.058;2023-05-16T12:41:39;5.75;;;3.10;;
325;SDS011;150;52.352;14.058;2023-05-16T12:44:19;6.10;;;2.60;;
325;SDS011;150;52.352;14.058;2023-05-16T12:46:48;3.28;;;2.17;;
325;SDS011;150;52.352;14.058;2023-05-16T12:49:18;3.87;;;2.30;;
325;SDS011;150;52.352;14.058;2023-05-16T12:51:49;3.10;;;2.08;;
325;SDS011;150;52.352;14.058;2023-05-16T12:54:17;5.13;;;2.15;;
325;SDS011;150;52.352;14.058;2023-05-16T12:56:46;5.55;;;2.35;;
325;SDS011;150;52.352;14.058;2023-05-16T12:59:17;8.00;;;2.50;;
325;SDS011;150;52.352;14.058;2023-05-16T13:01:48;4.47;;;2.00;;
325;SDS011;150;52.352;14.058;2023-05-16T13:04:15;4.93;;;1.90;;
325;SDS011;150;52.352;14.058;2023-05-16T13:06:45;4.38;;;2.10;;
325;SDS011;150;52.352;14.058;2023-05-16T13:09:14;7.43;;;5.45;;
325;SDS011;150;52.352;14.058;2023-05-16T13:11:42;8.45;;;5.90;;
325;SDS011;150;52.352;14.058;2023-05-16T13:14:09;4.40;;;2.13;;
325;SDS011;150;52.352;14.058;2023-05-16T13:16:37;4.90;;;1.50;;
325;SDS011;150;52.352;14.058;2023-05-16T13:19:04;6.50;;;2.47;;
325;SDS011;150;52.352;14.058;2023-05-16T13:21:30;4.10;;;1.92;;
325;SDS011;150;52.352;14.058;2023-05-16T13:23:57;6.90;;;2.17;;
325;SDS011;150;52.352;14.058;2023-05-16T13:26:24;4.47;;;1.50;;
325;SDS011;150;52.352;14.058;2023-05-16T13:28:53;2.40;;;1.73;;
325;SDS011;150;52.352;14.058;2023-05-16T13:31:19;2.67;;;1.43;;
325;SDS011;150;52.352;14.058;2023-05-16T13:33:48;2.50;;;1.60;;
325;SDS011;150;52.352;14.058;2023-05-16T13:36:15;5.10;;;2.30;;
325;SDS011;150;52.352;14.058;2023-05-16T13:38:41;3.90;;;2.20;;
325;SDS011;150;52.352;14.058;2023-05-16T13:41:08;5.30;;;1.98;;
325;SDS011;150;52.352;14.058;2023-05-16T13:43:35;3.80;;;1.67;;
325;SDS011;150;52.352;14.058;2023-05-16T13:46:02;6.72;;;2.10;;
325;SDS011;150;52.352;14.058;2023-05-16T13:48:30;7.40;;;2.10;;
325;SDS011;150;52.352;14.058;2023-05-16T13:50:59;5.00;;;2.00;;
325;SDS011;150;52.352;14.058;2023-05-16T13:53:25;6.30;;;2.80;;
325;SDS011;150;52.352;14.058;2023-05-16T13:56:08;6.93;;;1.70;;
325;SDS011;150;52.352;14.058;2023-05-16T13:58:35;6.30;;;2.00;;
325;SDS011;150;52.352;14.058;2023-05-16T14:01:02;6.78;;;2.20;;
325;SDS011;150;52.352;14.058;2023-05-16T14:03:36;4.88;;;1.80;;
325;SDS011;150;52.352;14.058;2023-05-16T14:06:04;5.93;;;2.63;;
325;SDS011;150;52.352;14.058;2023-05-16T14:08:31;5.95;;;2.30;;
325;SDS011;150;52.352;14.058;2023-05-16T14:11:04;6.22;;;3.40;;
325;SDS011;150;52.352;14.058;2023-05-16T14:13:32;12.38;;;7.13;;
325;SDS011;150;52.352;14.058;2023-05-16T14:15:59;4.35;;;2.35;;
325;SDS011;150;52.352;14.058;2023-05-16T14:18:26;2.20;;;2.00;;
325;SDS011;150;52.352;14.058;2023-05-16T14:20:58;6.55;;;2.80;;
325;SDS011;150;52.352;14.058;2023-05-16T14:23:29;4.18;;;1.67;;
325;SDS011;150;52.352;14.058;2023-05-16T14:26:04;5.63;;;1.60;;
325;SDS011;150;52.352;14.058;2023-05-16T14:28:40;4.03;;;1.80;;
325;SDS011;150;52.352;14.058;2023-05-16T14:31:09;2.70;;;1.33;;
325;SDS011;150;52.352;14.058;2023-05-16T14:33:38;7.00;;;1.70;;
325;SDS011;150;52.352;14.058;2023-05-16T14:36:07;2.28;;;1.67;;
325;SDS011;150;52.352;14.058;2023-05-16T14:38:36;3.42;;;1.90;;
325;SDS011;150;52.352;14.058;2023-05-16T14:41:03;9.10;;;2.20;;
325;SDS011;150;52.352;14.058;2023-05-16T14:43:30;3.67;;;2.10;;
325;SDS011;150;52.352;14.058;2023-05-16T14:46:00;8.77;;;1.70;;
325;SDS011;150;52.352;14.058;2023-05-16T14:48:28;5.18;;;1.67;;
325;SDS011;150;52.352;14.058;2023-05-16T14:51:14;7.22;;;2.13;;
325;SDS011;150;52.352;14.058;2023-05-16T14:53:43;7.18;;;3.88;;
325;SDS011;150;52.352;14.058;2023-05-16T14:56:14;6.57;;;1.70;;
325;SDS011;150;52.352;14.058;2023-05-16T14:58:50;3.88;;;1.48;;
325;SDS011;150;52.352;14.058;2023-05-16T15:01:16;5.05;;;1.60;;
325;SDS011;150;52.352;14.058;2023-05-16T15:03:43;4.00;;;2.53;;
325;SDS011;150;52.352;14.058;2023-05-16T15:06:12;15.57;;;8.63;;
325;SDS011;150;52.352;14.058;2023-05-16T15:08:42;5.07;;;2.30;;
325;SDS011;150;52.352;14.058;2023-05-16T15:11:09;4.47;;;1.73;;
325;SDS011;150;52.352;14.058;2023-05-16T15:13:35;5.18;;;1.42;;
325;SDS011;150;52.352;14.058;2023-05-16T15:16:03;10.70;;;2.10;;
325;SDS011;150;52.352;14.058;2023-05-16T15:18:30;3.58;;;1.95;;
325;SDS011;150;52.352;14.058;2023-05-16T15:20:57;5.60;;;1.83;;
325;SDS011;150;52.352;14.058;2023-05-16T15:23:23;5.35;;;1.60;;
325;SDS011;150;52.352;14.058;2023-05-16T15:25:54;6.00;;;1.88;;
325;SDS011;150;52.352;14.058;2023-05-16T15:28:21;6.28;;;1.60;;
325;SDS011;150;52.352;14.058;2023-05-16T15:30:49;3.70;;;1.60;;
325;SDS011;150;52.352;14.058;2023-05-16T15:33:17;6.60;;;1.80;;
325;SDS011;150;52.352;14.058;2023-05-16T15:35:44;5.55;;;2.30;;
325;SDS011;150;52.352;14.058;2023-05-16T15:38:11;13.52;;;4.15;;
325;SDS011;150;52.352;14.058;2023-05-16T15:40:37;6.07;;;1.77;;
325;SDS011;150;52.352;14.058;2023-05-16T15:43:05;10.93;;;2.47;;